createdAt,value
2018-05-06T00:00:04.715Z,98861.00
2018-05-06T00:02:32.973Z,98863.88
2018-05-06T00:05:01.263Z,98863.89
2018-05-06T00:07:29.548Z,98864.66
2018-05-06T00:09:57.843Z,98862.92
2018-05-06T00:12:26.190Z,98874.69
2018-05-06T00:14:54.461Z,98868.24
2018-05-06T00:17:22.757Z,98869.55
2018-05-06T00:19:51.040Z,98869.64
2018-05-06T00:22:19.366Z,98867.25
2018-05-06T00:24:47.630Z,98869.58
2018-05-06T00:27:15.946Z,98877.30
2018-05-06T00:29:44.232Z,98869.83
2018-05-06T00:32:12.508Z,98873.69
2018-05-06T00:34:40.814Z,98874.69
2018-05-06T00:37:09.087Z,98868.45
2018-05-06T00:39:37.426Z,98867.91
2018-05-06T00:42:05.640Z,98869.82
2018-05-06T00:44:33.915Z,98868.13
2018-05-06T00:47:02.190Z,98867.82
2018-05-06T00:49:34.053Z,98870.73
2018-05-06T00:52:02.374Z,98868.66
2018-05-06T00:54:44.450Z,98864.70
2018-05-06T00:57:12.772Z,98864.30
2018-05-06T00:59:41.824Z,98870.24
2018-05-06T01:02:10.124Z,98867.31
2018-05-06T01:04:38.447Z,98869.29
2018-05-06T01:07:06.728Z,98867.88
2018-05-06T01:09:34.976Z,98873.24
2018-05-06T01:12:04.031Z,98873.46
2018-05-06T01:14:32.303Z,98876.06
2018-05-06T01:17:00.589Z,98878.16
2018-05-06T01:19:28.867Z,98874.50
2018-05-06T01:21:57.184Z,98873.94
2018-05-06T01:24:26.248Z,98876.42
2018-05-06T01:26:54.543Z,98879.14
2018-05-06T01:29:23.598Z,98868.88
2018-05-06T01:31:51.887Z,98868.14
2018-05-06T01:34:20.141Z,98873.91
2018-05-06T01:36:48.446Z,98871.69
2018-05-06T01:39:16.726Z,98870.09
2018-05-06T01:41:45.005Z,98875.78
2018-05-06T01:44:13.803Z,98869.56
2018-05-06T01:46:42.099Z,98867.45
2018-05-06T01:49:11.156Z,98873.29
2018-05-06T01:51:39.452Z,98870.83
2018-05-06T01:54:07.728Z,98875.72
2018-05-06T01:56:36.034Z,98865.53
2018-05-06T01:59:05.060Z,98870.55
2018-05-06T02:01:33.336Z,98869.05
2018-05-06T02:04:02.760Z,98866.63
2018-05-06T02:06:31.278Z,98865.75
2018-05-06T02:08:59.729Z,98876.03
2018-05-06T02:11:28.063Z,98867.75
2018-05-06T02:13:57.197Z,98870.18
2018-05-06T02:16:25.529Z,98866.74
2018-05-06T02:18:54.626Z,98870.71
2018-05-06T02:21:25.888Z,98881.27
2018-05-06T02:23:55.085Z,98882.92
2018-05-06T02:26:24.387Z,98887.69
2018-05-06T02:28:53.590Z,98891.70
2018-05-06T02:31:21.914Z,98891.47
2018-05-06T02:33:50.452Z,98885.35
2018-05-06T02:36:18.971Z,98887.82
2018-05-06T02:38:47.448Z,98882.83
2018-05-06T02:41:16.081Z,98883.78
2018-05-06T02:43:45.359Z,98885.22
2018-05-06T02:46:13.798Z,98883.16
2018-05-06T02:48:43.377Z,98879.44
2018-05-06T02:51:11.878Z,98875.85
2018-05-06T02:53:40.238Z,98883.45
2018-05-06T02:56:09.855Z,98885.35
2018-05-06T02:58:38.147Z,98886.67
2018-05-06T03:01:06.442Z,98887.36
2018-05-06T03:03:35.426Z,98892.53
2018-05-06T03:06:03.798Z,98895.15
2018-05-06T03:08:32.757Z,98895.48
2018-05-06T03:11:01.132Z,98900.30
2018-05-06T03:13:30.263Z,98896.50
2018-05-06T03:15:59.491Z,98889.62
2018-05-06T03:18:28.062Z,98890.73
2018-05-06T03:20:56.381Z,98891.33
2018-05-06T03:23:24.680Z,98889.28
2018-05-06T03:25:52.978Z,98883.80
2018-05-06T03:28:21.449Z,98892.65
2018-05-06T03:30:49.777Z,98895.56
2018-05-06T03:33:18.052Z,98899.48
2018-05-06T03:35:47.483Z,98900.83
2018-05-06T03:38:15.773Z,98903.86
2018-05-06T03:40:45.131Z,98900.64
2018-05-06T03:43:13.540Z,98899.67
2018-05-06T03:45:41.895Z,98904.34
2018-05-06T03:48:10.225Z,98904.86
2018-05-06T03:50:40.178Z,98903.78
2018-05-06T03:53:08.481Z,98901.73
2018-05-06T03:55:36.795Z,98900.94
2018-05-06T03:58:23.066Z,98897.91
2018-05-06T04:00:51.385Z,98898.98
2018-05-06T04:03:21.752Z,98903.77
2018-05-06T04:05:50.050Z,98901.75
2018-05-06T04:08:18.346Z,98904.34
2018-05-06T04:10:46.625Z,98906.65
2018-05-06T04:13:15.269Z,98904.03
2018-05-06T04:15:43.681Z,98906.16
2018-05-06T04:18:12.976Z,98906.73
2018-05-06T04:20:41.381Z,98909.27
2018-05-06T04:23:09.680Z,98910.01
2018-05-06T04:25:38.045Z,98915.55
2018-05-06T04:28:07.411Z,98911.21
2018-05-06T04:30:35.657Z,98913.83
2018-05-06T04:33:03.960Z,98916.86
2018-05-06T04:35:32.241Z,98927.65
2018-05-06T04:38:00.507Z,98925.75
2018-05-06T04:40:28.790Z,98925.19
2018-05-06T04:42:57.063Z,98927.39
2018-05-06T04:45:25.772Z,98927.47
2018-05-06T04:47:54.060Z,98927.72
2018-05-06T04:50:22.315Z,98930.44
2018-05-06T04:52:50.579Z,98929.27
2018-05-06T04:55:19.609Z,98934.19
2018-05-06T04:57:47.897Z,98926.17
2018-05-06T05:00:16.665Z,98931.30
2018-05-06T05:02:44.927Z,98929.94
2018-05-06T05:05:13.200Z,98938.83
2018-05-06T05:07:41.463Z,98935.80
2018-05-06T05:10:10.627Z,98934.09
2018-05-06T05:12:39.785Z,98927.28
2018-05-06T05:15:08.161Z,98926.95
2018-05-06T05:17:36.861Z,98925.45
2018-05-06T05:20:05.275Z,98918.81
2018-05-06T05:22:34.543Z,98921.25
2018-05-06T05:25:03.824Z,98913.00
2018-05-06T05:27:33.149Z,98915.12
2018-05-06T05:30:02.413Z,98923.11
2018-05-06T05:32:34.214Z,98916.43
2018-05-06T05:35:02.569Z,98915.95
2018-05-06T05:37:30.963Z,98921.85
2018-05-06T05:39:59.374Z,98923.22
2018-05-06T05:42:28.044Z,98928.05
2018-05-06T05:44:56.420Z,98926.14
2018-05-06T05:47:24.808Z,98926.06
2018-05-06T05:49:53.475Z,98926.14
2018-05-06T05:52:22.196Z,98929.23
2018-05-06T05:54:50.530Z,98935.07
2018-05-06T05:57:18.911Z,98938.59
2018-05-06T05:59:49.172Z,98934.46
2018-05-06T06:02:19.366Z,98933.42
2018-05-06T06:04:47.756Z,98935.05
2018-05-06T06:07:16.161Z,98933.67
2018-05-06T06:09:44.570Z,98926.97
2018-05-06T06:12:12.950Z,98926.03
2018-05-06T06:14:42.213Z,98916.31
2018-05-06T06:17:10.559Z,98923.84
2018-05-06T06:19:38.987Z,98919.38
2018-05-06T06:22:07.331Z,98912.59
2018-05-06T06:24:45.862Z,98920.79
2018-05-06T06:27:17.909Z,98917.75
2018-05-06T06:29:46.300Z,98926.04
2018-05-06T06:32:14.569Z,98918.46
2018-05-06T06:34:42.851Z,98924.27
2018-05-06T06:37:11.132Z,98923.55
2018-05-06T06:39:39.396Z,98918.36
2018-05-06T06:42:07.688Z,98917.00
2018-05-06T06:44:36.013Z,98915.62
2018-05-06T06:47:05.271Z,98906.65
2018-05-06T06:49:37.356Z,98911.94
2018-05-06T06:52:07.549Z,98908.30
2018-05-06T06:54:36.855Z,98905.09
2018-05-06T06:57:06.188Z,98903.92
2018-05-06T06:59:36.368Z,98905.94
2018-05-06T07:02:04.771Z,98906.48
2018-05-06T07:04:33.175Z,98901.58
2018-05-06T07:07:03.398Z,98900.28
2018-05-06T07:09:35.442Z,98901.44
2018-05-06T07:12:05.649Z,98895.67
2018-05-06T07:14:34.081Z,98897.34
2018-05-06T07:17:03.047Z,98901.46
2018-05-06T07:19:32.382Z,98896.13
2018-05-06T07:22:00.897Z,98898.08
2018-05-06T07:24:31.233Z,98894.24
2018-05-06T07:26:59.639Z,98891.23
2018-05-06T07:29:28.017Z,98890.03
2018-05-06T07:31:57.318Z,98896.74
2018-05-06T07:34:25.691Z,98892.72
2018-05-06T07:36:54.061Z,98891.22
2018-05-06T07:39:22.468Z,98892.55
2018-05-06T07:41:51.748Z,98897.23
2018-05-06T07:44:20.035Z,98892.27
2018-05-06T07:46:48.361Z,98898.24
2018-05-06T07:49:16.652Z,98895.20
2018-05-06T07:51:44.921Z,98896.14
2018-05-06T07:54:13.225Z,98894.51
2018-05-06T07:56:41.488Z,98888.05
2018-05-06T07:59:09.800Z,98897.28
2018-05-06T08:01:38.104Z,98889.13
2018-05-06T08:04:06.375Z,98893.30
2018-05-06T08:06:34.668Z,98892.07
2018-05-06T08:09:03.035Z,98892.55
2018-05-06T08:11:31.238Z,98885.42
2018-05-06T08:14:02.227Z,98894.05
2018-05-06T08:16:30.632Z,98884.48
2018-05-06T08:18:59.582Z,98894.33
2018-05-06T08:21:27.864Z,98883.88
2018-05-06T08:23:56.141Z,98888.19
2018-05-06T08:26:24.425Z,98885.36
2018-05-06T08:28:52.695Z,98885.41
2018-05-06T08:31:23.053Z,98879.19
2018-05-06T08:33:53.271Z,98881.11
2018-05-06T08:36:23.499Z,98875.69
2018-05-06T08:38:53.697Z,98878.12
2018-05-06T08:41:22.087Z,98878.10
2018-05-06T08:43:50.473Z,98870.53
2018-05-06T08:46:19.779Z,98867.84
2018-05-06T08:48:48.151Z,98875.56
2018-05-06T08:51:16.536Z,98870.87
2018-05-06T08:53:44.917Z,98870.19
2018-05-06T08:56:13.304Z,98873.17
2018-05-06T08:58:42.054Z,98869.84
2018-05-06T09:01:10.608Z,98867.50
2018-05-06T09:03:39.394Z,98854.55
2018-05-06T09:06:08.019Z,98863.14
2018-05-06T09:08:36.685Z,98854.78
2018-05-06T09:11:06.102Z,98856.58
2018-05-06T09:13:34.725Z,98858.33
2018-05-06T09:16:04.022Z,98851.94
2018-05-06T09:18:33.352Z,98858.77
2018-05-06T09:21:01.706Z,98854.28
2018-05-06T09:23:38.682Z,98848.27
2018-05-06T09:26:08.894Z,98838.55
2018-05-06T09:28:39.150Z,98844.84
2018-05-06T09:31:08.414Z,98844.16
2018-05-06T09:33:36.822Z,98843.76
2018-05-06T09:36:05.120Z,98845.39
2018-05-06T09:38:33.392Z,98843.19
2018-05-06T09:41:01.686Z,98838.17
2018-05-06T09:43:30.024Z,98840.23
2018-05-06T09:45:58.310Z,98835.72
2018-05-06T09:48:26.634Z,98832.52
2018-05-06T09:50:54.938Z,98824.95
2018-05-06T09:53:23.220Z,98822.66
2018-05-06T09:55:51.552Z,98827.11
2018-05-06T09:58:19.840Z,98827.27
2018-05-06T10:18:51.547Z,98832.05
2018-05-06T10:39:24.472Z,98804.38
2018-05-06T11:00:02.007Z,98793.66
2018-05-06T11:20:39.627Z,98762.48
2018-05-06T11:41:14.281Z,98753.34
2018-05-06T12:01:51.401Z,98739.95
2018-05-06T12:22:27.284Z,98730.62
2018-05-06T12:43:02.868Z,98727.90
2018-05-06T13:03:36.290Z,98696.11
2018-05-06T13:24:13.406Z,98671.35
2018-05-06T13:44:45.614Z,98640.14
2018-05-06T14:05:22.221Z,98594.81
2018-05-06T14:26:09.527Z,98583.14
2018-05-06T14:46:57.540Z,98585.59
2018-05-06T15:07:29.747Z,98584.80
2018-05-06T15:28:01.936Z,98564.58
2018-05-06T15:48:37.238Z,98561.23
2018-05-06T15:54:12.095Z,98543.58
2018-05-06T15:56:40.634Z,98557.44
2018-05-06T15:59:08.933Z,98555.42
2018-05-06T16:01:39.167Z,98552.70
2018-05-06T16:04:16.403Z,98559.19
2018-05-06T16:06:44.837Z,98555.47
2018-05-06T16:09:13.215Z,98550.78
2018-05-06T16:11:41.583Z,98549.09
2018-05-06T16:14:10.040Z,98548.08
2018-05-06T16:16:38.346Z,98543.72
2018-05-06T16:19:10.398Z,98541.66
2018-05-06T16:21:38.819Z,98544.90
2018-05-06T16:24:07.155Z,98551.20
2018-05-06T16:26:35.687Z,98540.48
2018-05-06T16:29:04.673Z,98553.84
2018-05-06T16:31:32.968Z,98544.67
2018-05-06T16:34:02.013Z,98539.03
2018-05-06T16:36:30.295Z,98536.34
2018-05-06T16:38:58.584Z,98536.86
2018-05-06T16:41:26.855Z,98534.59
2018-05-06T16:43:55.131Z,98545.14
2018-05-06T16:46:23.414Z,98542.77
2018-05-06T16:48:51.679Z,98538.97
2018-05-06T16:51:20.005Z,98539.89
2018-05-06T16:53:48.328Z,98532.23
2018-05-06T16:56:16.623Z,98533.84
2018-05-06T16:58:45.683Z,98533.60
2018-05-06T17:01:13.976Z,98534.30
2018-05-06T17:03:43.045Z,98530.66
2018-05-06T17:06:11.360Z,98534.23
2018-05-06T17:08:40.406Z,98535.61
2018-05-06T17:11:08.683Z,98532.83
2018-05-06T17:13:36.972Z,98529.09
2018-05-06T17:16:05.221Z,98536.16
2018-05-06T17:18:33.516Z,98534.48
2018-05-06T17:21:01.790Z,98527.31
2018-05-06T17:23:30.054Z,98535.13
2018-05-06T17:25:58.363Z,98534.88
2018-05-06T17:28:26.635Z,98533.94
2018-05-06T17:30:54.927Z,98532.21
2018-05-06T17:33:23.230Z,98532.09
2018-05-06T17:35:52.250Z,98533.13
2018-05-06T17:38:20.524Z,98536.09
2018-05-06T17:40:49.622Z,98536.17
2018-05-06T17:43:18.649Z,98541.77
2018-05-06T17:45:46.917Z,98539.36
2018-05-06T17:48:15.224Z,98542.70
2018-05-06T17:50:43.511Z,98548.12
2018-05-06T17:53:11.786Z,98551.84
2018-05-06T17:55:40.110Z,98547.77
2018-05-06T17:58:08.395Z,98548.27
2018-05-06T18:00:36.781Z,98549.06
2018-05-06T18:03:05.053Z,98549.31
2018-05-06T18:05:33.325Z,98549.19
2018-05-06T18:08:01.621Z,98547.55
2018-05-06T18:10:29.897Z,98545.02
2018-05-06T18:12:58.181Z,98545.77
2018-05-06T18:15:26.476Z,98544.13
2018-05-06T18:17:54.757Z,98539.06
2018-05-06T18:20:23.070Z,98545.97
2018-05-06T18:22:52.096Z,98539.64
2018-05-06T18:25:20.376Z,98538.75
2018-05-06T18:27:48.664Z,98544.11
2018-05-06T18:30:16.933Z,98541.31
2018-05-06T18:32:45.182Z,98541.02
2018-05-06T18:35:13.978Z,98546.53
2018-05-06T18:37:45.593Z,98539.75
2018-05-06T18:40:24.404Z,98545.20
2018-05-06T18:46:00.785Z,98555.17
2018-05-06T18:48:32.254Z,98553.47
2018-05-06T18:51:04.943Z,98549.28
2018-05-06T18:53:33.295Z,98558.77
2018-05-06T18:56:01.690Z,98561.58
2018-05-06T18:58:30.053Z,98564.05
2018-05-06T19:00:58.426Z,98564.23
2018-05-06T19:03:26.835Z,98564.88
2018-05-06T19:05:55.125Z,98567.95
2018-05-06T19:08:25.075Z,98564.56
2018-05-06T19:10:53.333Z,98573.08
2018-05-06T19:13:21.608Z,98572.08
2018-05-06T19:15:49.907Z,98582.02
2018-05-06T19:18:18.959Z,98578.00
2018-05-06T19:20:47.226Z,98579.94
2018-05-06T19:23:15.523Z,98577.05
2018-05-06T19:25:43.823Z,98579.62
2018-05-06T19:28:12.868Z,98580.00
2018-05-06T19:30:41.184Z,98586.70
2018-05-06T19:33:09.458Z,98585.50
2018-05-06T19:35:37.739Z,98598.36
2018-05-06T19:38:06.042Z,98593.34
2018-05-06T19:40:35.064Z,98598.64
2018-05-06T19:43:03.346Z,98599.58
2018-05-06T19:45:31.643Z,98604.42
2018-05-06T19:47:59.959Z,98603.11
2018-05-06T19:50:28.239Z,98610.56
2018-05-06T19:52:57.271Z,98610.34
2018-05-06T19:55:25.545Z,98617.92
2018-05-06T19:57:53.854Z,98613.95
2018-05-06T20:00:22.104Z,98620.10
2018-05-06T20:02:50.401Z,98618.83
2018-05-06T20:05:18.707Z,98620.38
2018-05-06T20:07:46.974Z,98620.14
2018-05-06T20:10:15.231Z,98619.97
2018-05-06T20:12:43.524Z,98627.38
2018-05-06T20:15:11.806Z,98630.24
2018-05-06T20:17:40.083Z,98628.24
2018-05-06T20:20:08.383Z,98629.56
2018-05-06T20:22:36.631Z,98630.58
2018-05-06T20:25:04.919Z,98634.52
2018-05-06T20:27:33.219Z,98641.26
2018-05-06T20:30:01.485Z,98647.58
2018-05-06T20:32:29.774Z,98647.00
2018-05-06T20:34:58.086Z,98642.61
2018-05-06T20:37:26.360Z,98648.09
2018-05-06T20:39:54.644Z,98651.50
2018-05-06T20:42:22.951Z,98650.98
2018-05-06T20:44:51.225Z,98644.51
2018-05-06T20:47:19.533Z,98651.64
2018-05-06T20:49:47.822Z,98649.88
2018-05-06T20:52:16.097Z,98650.79
2018-05-06T20:54:45.300Z,98654.36
2018-05-06T20:57:13.581Z,98652.70
2018-05-06T20:59:42.631Z,98655.16
2018-05-06T21:02:10.894Z,98648.19
2018-05-06T21:04:39.163Z,98648.12
2018-05-06T21:07:07.442Z,98647.56
2018-05-06T21:09:35.727Z,98651.97
2018-05-06T21:12:04.027Z,98649.05
2018-05-06T21:14:32.306Z,98649.64
2018-05-06T21:17:00.573Z,98648.83
2018-05-06T21:19:28.843Z,98653.05
2018-05-06T21:21:57.124Z,98652.04
2018-05-06T21:24:25.381Z,98650.31
2018-05-06T21:26:53.668Z,98653.95
2018-05-06T21:29:21.932Z,98658.33
2018-05-06T21:31:50.195Z,98649.75
2018-05-06T21:34:19.261Z,98646.22
2018-05-06T21:36:47.624Z,98650.56
2018-05-06T21:39:15.876Z,98651.48
2018-05-06T21:41:44.126Z,98646.83
2018-05-06T21:44:13.172Z,98648.44
2018-05-06T21:46:41.458Z,98647.45
2018-05-06T21:49:09.734Z,98654.65
2018-05-06T21:51:37.996Z,98656.12
2018-05-06T21:54:06.277Z,98653.59
2018-05-06T21:56:34.540Z,98653.09
2018-05-06T21:59:02.825Z,98657.55
2018-05-06T22:01:32.026Z,98656.75
2018-05-06T22:04:00.304Z,98656.94
2018-05-06T22:06:28.575Z,98660.88
2018-05-06T22:08:56.863Z,98663.62
2018-05-06T22:11:25.095Z,98665.92
2018-05-06T22:13:54.160Z,98664.20
2018-05-06T22:16:22.435Z,98664.07
2018-05-06T22:18:50.728Z,98667.39
2018-05-06T22:21:18.997Z,98660.11
2018-05-06T22:23:47.268Z,98656.59
2018-05-06T22:26:15.576Z,98662.98
2018-05-06T22:28:44.615Z,98661.91
2018-05-06T22:31:12.880Z,98660.78
2018-05-06T22:33:41.168Z,98661.08
2018-05-06T22:36:09.444Z,98664.59
2018-05-06T22:38:37.697Z,98662.70
2018-05-06T22:41:07.030Z,98664.30
2018-05-06T22:43:35.276Z,98657.22
2018-05-06T22:46:03.591Z,98657.06
2018-05-06T22:48:31.848Z,98661.19
2018-05-06T22:51:00.127Z,98652.55
2018-05-06T22:53:28.390Z,98656.80
2018-05-06T22:55:56.703Z,98656.69
2018-05-06T22:58:24.976Z,98656.53
2018-05-06T23:00:53.276Z,98656.44
2018-05-06T23:03:21.554Z,98654.45
2018-05-06T23:05:49.824Z,98655.95
2018-05-06T23:08:18.115Z,98658.87
2018-05-06T23:10:46.379Z,98652.16
2018-05-06T23:13:14.683Z,98649.45
2018-05-06T23:15:42.948Z,98647.65
2018-05-06T23:18:11.210Z,98643.98
2018-05-06T23:20:39.487Z,98646.97
2018-05-06T23:23:07.767Z,98640.30
2018-05-06T23:25:36.052Z,98646.53
2018-05-06T23:28:04.324Z,98646.96
2018-05-06T23:30:32.606Z,98647.33
2018-05-06T23:33:00.897Z,98642.86
2018-05-06T23:35:29.200Z,98637.24
2018-05-06T23:37:57.473Z,98635.63
2018-05-06T23:40:26.513Z,98635.28
2018-05-06T23:42:54.798Z,98638.91
2018-05-06T23:45:23.073Z,98636.91
2018-05-06T23:47:51.347Z,98630.73
2018-05-06T23:50:19.624Z,98633.05
2018-05-06T23:52:47.916Z,98632.47
2018-05-06T23:55:16.187Z,98636.13
2018-05-06T23:57:44.454Z,98632.20
